Time;durP1;ratioP1;P1;durP2;ratioP2;P2;SDS_P1;SDS_P2;PMS_P1;PMS_P2;Temp;Humidity;BMP_temperature;BMP_pressure;BME280_temperature;BME280_humidity;BME280_pressure;Samples;Min_cycle;Max_cycle;Signal;HPM_P1;HPM_P2
2021/07/17 00:01:35;;;;;;;;;;;20.10;92.10;;;19.26;89.18;101360.84;4992471;28;19953;-82
2021/07/17 00:04:04;;;;;;;;;;;20.10;91.60;;;19.27;89.21;101360.63;4992214;28;20341;-82
2021/07/17 00:06:32;;;;;;;;;;;20.10;91.50;;;19.28;89.10;101373.34;4990570;28;19957;-82
2021/07/17 00:09:00;;;;;;;;;;;20.10;92.10;;;19.27;89.38;101370.84;4992572;28;19922;-82
2021/07/17 00:11:29;;;;;;;;;;;20.10;92.10;;;19.26;89.28;101366.38;4992146;28;20446;-82
2021/07/17 00:13:56;;;;;;;;;;;20.10;92.10;;;19.25;89.38;101368.31;4992316;28;19925;-82
2021/07/17 00:16:26;;;;;;;;;;;20.00;92.00;;;19.26;89.14;101363.63;4973787;28;20341;-83
2021/07/17 00:18:54;;;;;;;;;;;20.00;91.60;;;19.26;89.07;101366.38;4992233;28;19953;-82
2021/07/17 00:21:24;;;;;;;;;;;20.10;91.90;;;19.25;89.11;101357.25;4992037;28;19926;-82
2021/07/17 00:23:51;;;;;;;;;;;20.10;92.10;;;19.24;88.98;101354.72;4992192;28;19957;-82
2021/07/17 00:26:18;;;;;;;;;;;20.10;91.90;;;19.25;89.35;101356.44;4991355;28;19925;-82
2021/07/17 00:28:45;;;;;;;;;;;20.10;92.10;;;19.24;89.27;101354.72;4992354;28;19926;-82
2021/07/17 00:31:12;;;;;;;;;;;20.00;92.00;;;19.24;89.43;101354.72;4992044;28;19949;-82
2021/07/17 00:33:39;;;;;;;;;;;20.00;92.00;;;19.23;89.46;101358.53;4990069;28;19922;-82
2021/07/17 00:36:06;;;;;;;;;;;20.00;92.10;;;19.23;89.47;101355.75;4989946;28;19980;-82
2021/07/17 00:38:35;;;;;;;;;;;20.00;92.10;;;19.22;89.52;101348.56;4991883;28;19926;-82
2021/07/17 00:41:02;;;;;;;;;;;20.00;92.20;;;19.21;89.74;101338.59;4991164;28;19948;-82
2021/07/17 00:43:29;;;;;;;;;;;20.00;92.40;;;19.21;89.58;101344.97;4991627;28;19923;-82
2021/07/17 00:45:56;;;;;;;;;;;20.00;92.20;;;19.21;89.71;101344.97;4973942;28;19992;-82
2021/07/17 00:48:24;;;;;;;;;;;20.00;92.40;;;19.20;89.75;101342.44;4991721;28;19983;-82
2021/07/17 00:50:51;;;;;;;;;;;20.00;92.50;;;19.21;89.95;101344.09;4986217;28;20013;-82
2021/07/17 00:53:18;;;;;;;;;;;20.00;92.60;;;19.19;89.72;101349.00;4991705;28;19963;-83
2021/07/17 00:55:49;;;;;;;;;;;20.00;92.40;;;19.18;89.85;101359.22;4991554;28;20044;-82
2021/07/17 00:58:17;;;;;;;;;;;20.00;92.40;;;19.18;89.85;101355.59;4991200;28;20025;-82
2021/07/17 01:00:45;;;;;;;;;;;20.00;92.50;;;19.18;89.89;101350.94;4991270;28;20397;-83
2021/07/17 01:03:12;;;;;;;;;;;20.00;92.50;;;19.17;89.93;101354.75;4991517;28;19921;-82
2021/07/17 01:05:39;;;;;;;;;;;20.00;92.20;;;19.16;89.89;101347.53;4991582;28;19980;-82
2021/07/17 01:08:06;;;;;;;;;;;20.00;92.40;;;19.17;89.91;101345.63;4990646;28;20436;-82
2021/07/17 01:10:34;;;;;;;;;;;20.00;92.50;;;19.16;89.88;101352.22;4990518;28;19988;-82
2021/07/17 01:13:02;;;;;;;;;;;19.90;92.50;;;19.16;89.59;101354.97;4988753;28;20482;-82
2021/07/17 01:15:29;;;;;;;;;;;19.90;92.20;;;19.17;89.63;101353.91;4973973;28;19952;-82
2021/07/17 01:17:57;;;;;;;;;;;20.00;92.20;;;19.16;89.68;101357.75;4990571;28;19961;-82
2021/07/17 01:20:24;;;;;;;;;;;19.90;92.10;;;19.16;89.25;101358.59;4991337;28;19933;-82
2021/07/17 01:22:53;;;;;;;;;;;19.90;91.90;;;19.14;89.01;101353.28;4991089;28;19961;-83
2021/07/17 01:25:22;;;;;;;;;;;19.90;91.40;;;19.14;88.90;101360.72;4990998;28;20407;-82
2021/07/17 01:27:50;;;;;;;;;;;19.90;91.60;;;19.14;88.85;101361.56;4990471;28;19960;-82
2021/07/17 01:30:20;;;;;;;;;;;19.90;92.00;;;19.13;89.04;101359.88;4990356;28;20465;-82
2021/07/17 01:32:47;;;;;;;;;;;19.90;92.00;;;19.12;89.06;101363.69;4989782;28;19926;-82
2021/07/17 01:35:14;;;;;;;;;;;19.90;92.10;;;19.13;89.17;101364.53;4990768;28;20015;-82
2021/07/17 01:37:41;;;;;;;;;;;19.90;92.10;;;19.11;89.05;101362.03;4990067;28;19975;-82
2021/07/17 01:40:18;;;;;;;;;;;19.90;92.00;;;19.13;89.12;101361.78;4990524;28;19965;-82
2021/07/17 01:42:46;;;;;;;;;;;19.90;92.00;;;19.11;88.96;101350.97;4990876;28;19933;-82
2021/07/17 01:45:21;;;;;;;;;;;19.90;92.00;;;19.10;89.00;101360.31;4990756;28;20314;-82
2021/07/17 01:47:48;;;;;;;;;;;19.90;92.00;;;19.08;88.93;101362.44;4989688;28;20378;-82
2021/07/17 01:50:15;;;;;;;;;;;19.90;92.00;;;19.07;88.95;101366.25;4990674;28;19921;-82
2021/07/17 01:52:42;;;;;;;;;;;19.80;91.90;;;19.07;89.02;101360.75;4990400;28;19925;-82
2021/07/17 01:55:11;;;;;;;;;;;19.80;91.90;;;19.07;89.05;101362.66;4990501;28;20561;-82
2021/07/17 01:57:40;;;;;;;;;;;19.80;91.80;;;19.07;88.93;101365.41;4988389;28;19972;-82
2021/07/17 02:00:08;;;;;;;;;;;19.80;91.90;;;19.07;88.93;101360.75;4990392;28;19932;-83
2021/07/17 02:02:36;;;;;;;;;;;19.80;91.90;;;19.08;89.01;101356.09;5012345;23;19959;-80
2021/07/17 02:05:05;;;;;;;;;;;19.80;91.90;;;19.07;88.79;101352.47;5029517;28;20012;-80
2021/07/17 02:07:32;;;;;;;;;;;19.80;91.90;;;19.07;88.88;101360.75;5029160;28;19929;-80
2021/07/17 02:09:59;;;;;;;;;;;19.80;91.80;;;19.06;88.83;101361.81;5029442;28;19925;-80
2021/07/17 02:12:28;;;;;;;;;;;19.80;91.80;;;19.05;88.66;101351.00;5026253;28;20017;-80
2021/07/17 02:14:55;;;;;;;;;;;19.80;91.80;;;19.04;88.85;101350.16;5009339;28;19926;-80
2021/07/17 02:17:22;;;;;;;;;;;19.80;91.90;;;19.04;89.10;101349.28;5009213;28;20027;-81
2021/07/17 02:19:49;;;;;;;;;;;19.80;92.10;;;19.03;88.99;101342.09;5009890;28;20242;-81
2021/07/17 02:22:16;;;;;;;;;;;19.80;91.90;;;19.03;88.55;101348.47;5007980;28;20023;-81
2021/07/17 02:24:43;;;;;;;;;;;19.80;91.90;;;19.02;88.28;101341.25;5009988;28;20017;-81
2021/07/17 02:27:10;;;;;;;;;;;19.70;91.40;;;19.02;88.31;101352.31;4991406;28;20301;-80
2021/07/17 02:29:38;;;;;;;;;;;19.70;91.60;;;19.02;88.37;101345.91;4992023;28;19932;-82
2021/07/17 02:32:06;;;;;;;;;;;19.70;91.70;;;19.01;88.21;101356.09;5009635;28;20019;-82
2021/07/17 02:34:33;;;;;;;;;;;19.70;91.80;;;19.01;88.24;101356.09;4992198;28;19964;-83
2021/07/17 02:37:00;;;;;;;;;;;19.70;91.60;;;19.00;88.31;101359.94;5008965;28;19931;-82
2021/07/17 02:39:27;;;;;;;;;;;19.70;91.90;;;18.98;88.23;101351.03;5009933;28;19925;-82
2021/07/17 02:41:54;;;;;;;;;;;19.70;91.80;;;18.98;87.79;101351.03;5009625;28;20374;-82
2021/07/17 02:44:21;;;;;;;;;;;19.70;91.20;;;18.97;87.87;101349.34;5009593;28;19971;-82
2021/07/17 02:46:50;;;;;;;;;;;19.70;91.30;;;18.98;87.98;101352.94;5008927;28;19929;-82
2021/07/17 02:49:17;;;;;;;;;;;19.70;91.50;;;18.95;87.70;101352.31;5006485;28;19976;-82
2021/07/17 02:51:44;;;;;;;;;;;19.70;91.70;;;18.96;87.86;101355.91;5008638;28;19925;-82
2021/07/17 02:54:12;;;;;;;;;;;19.70;91.60;;;18.95;88.16;101343.19;5009161;28;20020;-82
2021/07/17 02:56:39;;;;;;;;;;;19.70;91.80;;;18.97;87.87;101354.03;5008931;28;19921;-82
2021/07/17 02:59:06;;;;;;;;;;;19.70;91.90;;;18.95;87.97;101348.72;5009657;28;19925;-82
2021/07/17 03:01:33;;;;;;;;;;;19.70;91.70;;;18.95;87.86;101348.72;5009430;28;19925;-82
2021/07/17 03:04:02;;;;;;;;;;;19.70;91.50;;;18.95;87.79;101348.72;5009392;28;19979;-82
2021/07/17 03:06:29;;;;;;;;;;;19.70;91.30;;;18.95;87.28;101351.47;5008564;28;19925;-82
2021/07/17 03:08:56;;;;;;;;;;;19.60;90.50;;;18.94;87.26;101353.41;5008106;28;19972;-82
2021/07/17 03:11:23;;;;;;;;;;;19.60;90.40;;;18.92;86.92;101350.03;5007237;28;20024;-82
2021/07/17 03:13:50;;;;;;;;;;;19.60;90.90;;;18.93;86.85;101348.09;4991785;28;19926;-82
2021/07/17 03:16:17;;;;;;;;;;;19.60;90.50;;;18.93;86.99;101345.34;5006821;28;20378;-82
2021/07/17 03:18:44;;;;;;;;;;;19.60;90.90;;;18.92;87.08;101340.88;5008436;28;20020;-83
2021/07/17 03:21:12;;;;;;;;;;;19.60;90.70;;;18.91;86.46;101347.47;5022838;28;20012;-83
2021/07/17 03:23:40;;;;;;;;;;;19.60;89.80;;;18.92;86.64;101349.16;5028194;28;19925;-83
2021/07/17 03:26:07;;;;;;;;;;;19.60;90.40;;;18.90;86.46;101348.53;5028356;28;20023;-83
2021/07/17 03:28:34;;;;;;;;;;;19.60;90.30;;;18.91;86.30;101351.06;5019329;28;19983;-82
2021/07/17 03:31:01;;;;;;;;;;;19.60;90.40;;;18.92;86.63;101346.38;5009388;28;19925;-82
2021/07/17 03:33:29;;;;;;;;;;;19.60;90.30;;;18.90;86.75;101351.28;5009227;28;19926;-82
2021/07/17 03:35:57;;;;;;;;;;;19.60;90.80;;;18.90;86.90;101354.03;5010503;28;19961;-82
2021/07/17 03:38:26;;;;;;;;;;;19.60;90.40;;;18.92;86.51;101357.44;5012353;28;19968;-82
2021/07/17 03:40:53;;;;;;;;;;;19.60;90.50;;;18.89;85.97;101346.84;4995049;28;19961;-82
2021/07/17 03:43:20;;;;;;;;;;;19.60;89.90;;;18.89;86.47;101346.84;5012652;28;19975;-82
2021/07/17 03:45:47;;;;;;;;;;;19.60;90.80;;;18.88;86.47;101345.16;5012246;28;19922;-82
2021/07/17 03:48:14;;;;;;;;;;;19.60;90.70;;;18.85;86.49;101346.44;5012323;28;20390;-82
2021/07/17 03:50:41;;;;;;;;;;;19.60;90.70;;;18.86;86.92;101337.09;5012154;28;19957;-83
2021/07/17 03:53:08;;;;;;;;;;;19.60;91.10;;;18.86;87.16;101342.59;5012439;28;19957;-82
2021/07/17 03:55:36;;;;;;;;;;;19.60;91.30;;;18.87;86.99;101340.72;5012320;28;20565;-82
2021/07/17 03:58:04;;;;;;;;;;;19.60;91.10;;;18.86;86.72;101339.00;5012252;28;20309;-82
2021/07/17 04:00:31;;;;;;;;;;;19.60;91.00;;;18.86;87.12;101342.59;5009828;28;19965;-82
2021/07/17 04:02:58;;;;;;;;;;;19.60;91.00;;;18.85;87.20;101334.53;5011668;28;20444;-82
2021/07/17 04:05:25;;;;;;;;;;;19.60;91.20;;;18.85;87.10;101342.81;5012051;28;20306;-83
2021/07/17 04:07:52;;;;;;;;;;;19.60;91.20;;;18.87;86.85;101346.22;5010896;28;19949;-82
2021/07/17 04:10:19;;;;;;;;;;;19.60;90.30;;;18.86;86.87;101348.13;5012153;28;19925;-82
2021/07/17 04:12:47;;;;;;;;;;;19.60;91.00;;;18.85;87.05;101353.84;5011804;28;19999;-82
2021/07/17 04:15:15;;;;;;;;;;;19.60;91.20;;;18.83;87.33;101347.69;5012120;28;19964;-86
2021/07/17 04:17:42;;;;;;;;;;;19.60;91.40;;;18.84;87.35;101352.16;5011283;28;20018;-85
2021/07/17 04:20:10;;;;;;;;;;;19.60;91.00;;;18.83;87.55;101359.59;5011873;28;19941;-83
2021/07/17 04:22:38;;;;;;;;;;;19.60;91.50;;;18.83;87.53;101365.13;5012001;28;20012;-82
2021/07/17 04:25:07;;;;;;;;;;;19.60;91.60;;;18.83;87.60;101365.13;5011631;28;20031;-82
2021/07/17 04:27:34;;;;;;;;;;;19.60;91.70;;;18.83;88.04;101370.63;5011131;28;20032;-83
2021/07/17 04:30:03;;;;;;;;;;;19.60;91.80;;;18.83;87.95;101369.75;5026748;28;20283;-83
2021/07/17 04:32:30;;;;;;;;;;;19.60;91.80;;;18.84;88.53;101363.19;5011812;28;19931;-83
2021/07/17 04:34:57;;;;;;;;;;;19.60;91.90;;;18.83;88.57;101369.75;5011053;28;19921;-83
2021/07/17 04:37:24;;;;;;;;;;;19.60;92.10;;;18.83;88.76;101367.00;5010985;28;19972;-83
2021/07/17 04:39:51;;;;;;;;;;;19.60;92.20;;;18.83;88.81;101358.72;5011618;28;19933;-83
2021/07/17 04:42:18;;;;;;;;;;;19.60;92.20;;;18.82;88.86;101363.41;5011151;28;19968;-83
2021/07/17 04:44:45;;;;;;;;;;;19.60;92.10;;;18.84;88.71;101364.03;5009758;28;20363;-83
2021/07/17 04:47:14;;;;;;;;;;;19.60;92.20;;;18.85;88.88;101362.13;5010470;28;19976;-83
2021/07/17 04:49:41;;;;;;;;;;;19.60;92.30;;;18.84;89.14;101360.44;5011390;28;19971;-83
2021/07/17 04:52:08;;;;;;;;;;;19.60;92.40;;;18.84;89.28;101355.75;5009771;28;19960;-83
2021/07/17 04:54:35;;;;;;;;;;;19.60;92.40;;;18.83;89.04;101354.09;5011383;28;20306;-83
2021/07/17 04:57:02;;;;;;;;;;;19.60;92.40;;;18.81;89.40;101355.34;5010380;28;19925;-83
2021/07/17 04:59:29;;;;;;;;;;;19.60;92.40;;;18.81;89.35;101358.97;5011278;28;19928;-83
2021/07/17 05:01:56;;;;;;;;;;;19.60;92.40;;;18.81;89.38;101363.63;5011261;28;19961;-83
2021/07/17 05:04:25;;;;;;;;;;;19.60;92.30;;;18.81;89.11;101361.75;5010240;28;19929;-83
2021/07/17 05:06:53;;;;;;;;;;;19.60;91.80;;;18.81;88.79;101350.69;5009543;28;20457;-83
2021/07/17 05:09:20;;;;;;;;;;;19.60;91.80;;;18.82;88.56;101357.06;5003602;28;19925;-84
2021/07/17 05:11:47;;;;;;;;;;;19.60;91.50;;;18.82;88.46;101357.91;5006228;28;19932;-82
2021/07/17 05:14:14;;;;;;;;;;;19.60;91.80;;;18.84;88.39;101357.69;5010389;28;20636;-83
2021/07/17 05:16:41;;;;;;;;;;;19.60;91.70;;;18.81;88.59;101355.34;5010104;28;19960;-83
2021/07/17 05:19:08;;;;;;;;;;;19.60;91.80;;;18.81;88.88;101347.94;5010207;28;20305;-83
2021/07/17 05:21:37;;;;;;;;;;;19.60;91.80;;;18.80;89.08;101354.50;5010131;28;19983;-89
2021/07/17 05:24:05;;;;;;;;;;;19.60;91.90;;;18.81;89.32;101355.34;5010332;28;19991;-88
2021/07/17 05:26:32;;;;;;;;;;;19.60;92.00;;;18.80;88.85;101354.50;5009876;28;19925;-84
2021/07/17 05:28:59;;;;;;;;;;;19.60;91.80;;;18.80;88.76;101356.41;4992549;28;19931;-85
2021/07/17 05:31:26;;;;;;;;;;;19.60;91.80;;;18.78;88.64;101353.03;5010325;28;20441;-84
2021/07/17 05:33:53;;;;;;;;;;;19.60;91.80;;;18.79;88.65;101357.44;5010471;28;20020;-84
2021/07/17 05:36:20;;;;;;;;;;;19.60;91.70;;;18.81;88.51;101366.38;5009881;28;20461;-85
2021/07/17 05:38:48;;;;;;;;;;;19.60;91.70;;;18.81;88.32;101356.22;5010447;28;19925;-85
2021/07/17 05:41:15;;;;;;;;;;;19.60;91.50;;;18.81;88.30;101361.75;5010415;28;20012;-85
2021/07/17 05:43:43;;;;;;;;;;;19.60;91.70;;;18.81;88.62;101361.75;4992361;28;20366;-82
2021/07/17 05:46:10;;;;;;;;;;;19.60;91.80;;;18.82;88.56;101351.53;5009512;28;19925;-82
2021/07/17 05:48:37;;;;;;;;;;;19.60;91.70;;;18.82;88.27;101362.56;5010054;28;19932;-82
2021/07/17 05:51:04;;;;;;;;;;;19.60;91.20;;;18.83;88.14;101358.72;5010250;28;19956;-83
2021/07/17 05:53:31;;;;;;;;;;;19.60;91.20;;;18.81;87.97;101364.50;5009790;28;19921;-83
2021/07/17 05:55:59;;;;;;;;;;;19.60;91.00;;;18.81;88.08;101361.75;5009482;28;19952;-83
2021/07/17 05:58:28;;;;;;;;;;;19.70;91.10;;;18.81;88.22;101364.50;5009691;28;20572;-83
2021/07/17 06:00:55;;;;;;;;;;;19.70;91.30;;;18.82;88.10;101368.94;5009794;28;19925;-83
2021/07/17 06:03:22;;;;;;;;;;;19.70;91.10;;;18.81;88.10;101370.00;5009773;28;19925;-82
2021/07/17 06:05:49;;;;;;;;;;;19.70;90.80;;;18.82;88.08;101373.59;5009457;28;19925;-84
2021/07/17 06:08:16;;;;;;;;;;;19.70;90.60;;;18.84;88.04;101377.00;5009705;28;19921;-83
2021/07/17 06:10:43;;;;;;;;;;;19.80;90.40;;;18.83;87.88;101375.28;5009905;28;19922;-83
2021/07/17 06:13:12;;;;;;;;;;;19.80;90.50;;;18.84;87.98;101372.31;5009880;28;19925;-84
2021/07/17 06:15:39;;;;;;;;;;;19.80;90.50;;;18.84;87.88;101377.00;5009823;28;20017;-83
2021/07/17 06:18:06;;;;;;;;;;;19.80;90.40;;;18.83;87.86;101386.31;5009200;28;20400;-82
2021/07/17 06:20:33;;;;;;;;;;;19.80;90.60;;;18.85;87.99;101375.91;5009645;28;19921;-84
2021/07/17 06:23:00;;;;;;;;;;;19.80;90.80;;;18.86;88.19;101381.22;4991937;28;19925;-85
2021/07/17 06:25:27;;;;;;;;;;;19.80;90.90;;;18.85;88.16;101373.16;5006519;28;20681;-83
2021/07/17 06:27:54;;;;;;;;;;;19.80;90.60;;;18.85;88.19;101375.91;5008848;28;19956;-83
2021/07/17 06:30:23;;;;;;;;;;;19.80;90.80;;;18.86;88.37;101383.97;5009785;28;19964;-83
2021/07/17 06:32:50;;;;;;;;;;;19.80;90.90;;;18.86;88.51;101385.88;5009363;28;20020;-83
2021/07/17 06:35:17;;;;;;;;;;;19.80;91.00;;;18.86;88.28;101386.72;5009449;28;19922;-83
2021/07/17 06:37:44;;;;;;;;;;;19.80;90.70;;;18.86;88.54;101391.41;5008849;28;19972;-83
2021/07/17 06:40:13;;;;;;;;;;;19.80;90.90;;;18.85;88.49;101387.81;5009316;28;19957;-84
2021/07/17 06:42:42;;;;;;;;;;;19.80;91.00;;;18.86;88.02;101392.25;5009634;28;20016;-83
2021/07/17 06:45:11;;;;;;;;;;;19.80;90.30;;;18.87;88.17;101393.13;5009085;28;19929;-85
2021/07/17 06:47:40;;;;;;;;;;;19.80;90.90;;;18.85;88.26;101395.22;5008732;28;20426;-82
2021/07/17 06:50:08;;;;;;;;;;;19.80;90.80;;;18.87;88.16;101404.97;5009484;28;19921;-81
2021/07/17 06:52:35;;;;;;;;;;;19.80;90.50;;;18.88;88.08;101401.16;5009128;28;19929;-82
2021/07/17 06:55:03;;;;;;;;;;;19.90;90.50;;;18.88;88.02;101411.34;5009417;28;19922;-84
2021/07/17 06:57:30;;;;;;;;;;;19.90;90.50;;;18.89;88.28;101410.28;5008545;28;20023;-86
2021/07/17 06:59:57;;;;;;;;;;;19.90;90.90;;;18.90;88.55;101415.56;4991584;28;20333;-82
2021/07/17 07:02:24;;;;;;;;;;;19.90;91.00;;;18.92;88.22;101418.09;5009106;28;19921;-83
2021/07/17 07:04:53;;;;;;;;;;;19.90;90.20;;;18.93;88.14;101414.31;4991262;28;19931;-83
2021/07/17 07:07:20;;;;;;;;;;;20.00;90.60;;;18.94;88.89;101427.00;5008034;28;19929;-85
2021/07/17 07:09:47;;;;;;;;;;;19.90;91.20;;;18.94;88.65;101418.72;4993359;28;19997;-85
2021/07/17 07:12:14;;;;;;;;;;;20.00;90.50;;;18.92;88.71;101429.16;5012693;28;19956;-84
2021/07/17 07:14:41;;;;;;;;;;;20.00;90.60;;;18.92;88.52;101423.63;5010145;28;19960;-79
2021/07/17 07:17:08;;;;;;;;;;;20.00;90.40;;;18.94;88.33;101427.00;5012440;28;19982;-86
2021/07/17 07:19:35;;;;;;;;;;;20.00;90.10;;;18.97;88.46;101428.50;5013165;28;20016;-84
2021/07/17 07:22:04;;;;;;;;;;;20.00;90.10;;;18.98;88.53;101432.94;5012875;28;19987;-85
2021/07/17 07:24:31;;;;;;;;;;;20.10;90.40;;;18.98;89.17;101431.03;5012905;28;19925;-86
2021/07/17 07:26:58;;;;;;;;;;;20.10;90.50;;;18.98;88.84;101433.78;5011585;28;20384;-87
2021/07/17 07:29:26;;;;;;;;;;;20.10;90.10;;;18.97;89.11;101437.63;5012661;28;19926;-86
2021/07/17 07:31:53;;;;;;;;;;;20.20;90.10;;;18.99;89.20;101429.13;5012834;28;20014;-86
2021/07/17 07:34:21;;;;;;;;;;;20.20;90.30;;;19.00;89.26;101437.19;5012778;28;19922;-86
2021/07/17 07:36:48;;;;;;;;;;;20.20;90.30;;;19.01;89.67;101432.53;5011619;28;20012;-86
2021/07/17 07:39:16;;;;;;;;;;;20.20;90.60;;;19.01;89.64;101449.06;5012468;28;19932;-86
2021/07/17 07:41:43;;;;;;;;;;;20.20;90.30;;;19.01;89.16;101433.34;5012595;28;19948;-88
2021/07/17 07:44:11;;;;;;;;;;;20.20;89.70;;;19.02;89.40;101440.59;4994472;28;19929;-89
2021/07/17 07:46:38;;;;;;;;;;;20.30;90.20;;;19.03;88.84;101439.50;5011656;28;19980;-84
2021/07/17 07:49:06;;;;;;;;;;;20.20;89.70;;;19.04;88.91;101445.84;4995007;28;19932;-84
2021/07/17 07:51:33;;;;;;;;;;;20.20;89.70;;;19.06;89.04;101439.06;5012431;28;20313;-84
2021/07/17 07:54:00;;;;;;;;;;;20.30;90.10;;;19.08;89.61;101439.69;5012461;28;20007;-86
2021/07/17 07:56:29;;;;;;;;;;;20.40;90.10;;;19.09;89.40;101435.84;5011102;28;20452;-85
2021/07/17 07:58:56;;;;;;;;;;;20.40;89.60;;;19.11;88.98;101439.28;5011621;28;19984;-85
2021/07/17 08:01:23;;;;;;;;;;;20.50;89.20;;;19.13;89.33;101439.03;5010882;28;19952;-86
2021/07/17 08:03:50;;;;;;;;;;;20.50;89.60;;;19.14;89.14;101438.81;5115752;22;20009;-84
2021/07/17 08:06:17;;;;;;;;;;;20.50;89.40;;;19.18;89.64;101427.34;5030605;28;19956;-85
2021/07/17 08:08:44;;;;;;;;;;;20.60;89.30;;;19.19;89.13;101437.31;5024778;28;19961;-85
2021/07/17 08:11:11;;;;;;;;;;;20.60;88.60;;;19.20;88.92;101425.22;5011323;28;19933;-86
2021/07/17 08:13:39;;;;;;;;;;;20.70;88.60;;;19.21;89.15;101440.69;5008921;28;20316;-85
2021/07/17 08:16:06;;;;;;;;;;;20.80;88.40;;;19.24;88.98;101440.28;5050861;28;19956;-85
2021/07/17 08:18:34;;;;;;;;;;;20.80;88.10;;;19.26;88.70;101440.91;5033388;28;20414;-92
2021/07/17 08:21:01;;;;;;;;;;;20.80;87.90;;;19.27;90.76;101448.13;5033262;28;19952;-86
2021/07/17 08:23:28;;;;;;;;;;;20.90;89.30;;;19.27;89.88;101437.91;5034253;28;19979;-89
2021/07/17 08:26:13;;;;;;;;;;;20.90;88.50;;;19.29;89.24;101440.47;5052063;28;20046;-94
2021/07/17 08:28:42;;;;;;;;;;;20.80;88.40;;;19.34;89.05;101443.38;5053134;28;19921;-88
2021/07/17 08:31:10;;;;;;;;;;;20.90;88.60;;;19.34;89.38;101438.75;5052054;28;19931;-91
2021/07/17 08:33:38;;;;;;;;;;;20.90;88.40;;;19.36;89.23;101446.78;5052384;28;19987;-92
2021/07/17 08:36:05;;;;;;;;;;;21.10;87.80;;;19.40;89.82;101447.19;5051292;28;19925;-92
2021/07/17 08:38:32;;;;;;;;;;;21.10;88.30;;;19.44;89.29;101452.06;5052128;28;19974;-90
2021/07/17 08:41:00;;;;;;;;;;;21.30;86.90;;;19.46;88.00;101446.34;5034335;28;20407;-91
2021/07/17 08:43:36;;;;;;;;;;;21.40;85.50;;;19.49;88.64;101440.34;5034064;28;20328;-92
2021/07/17 08:48:39;;;;;;;;;;;21.50;85.60;;;19.53;87.62;101450.75;5030035;28;19944;-88
2021/07/17 08:51:06;;;;;;;;;;;21.30;85.00;;;19.56;87.54;101454.13;5019597;28;19964;-87
2021/07/17 08:53:34;;;;;;;;;;;21.30;85.00;;;19.58;87.63;101452.00;5019978;28;19925;-86
2021/07/17 08:56:01;;;;;;;;;;;21.40;85.70;;;19.59;87.12;101451.78;5019452;28;19928;-85
2021/07/17 08:58:28;;;;;;;;;;;21.50;84.60;;;19.63;86.84;101452.16;5019835;28;20041;-89
2021/07/17 09:00:55;;;;;;;;;;;21.50;85.10;;;19.66;86.91;101454.47;5001015;28;20300;-92
2021/07/17 09:03:22;;;;;;;;;;;21.60;84.40;;;19.72;89.36;101448.09;5046772;28;19978;-86
2021/07/17 09:05:51;;;;;;;;;;;21.70;86.00;;;19.81;89.33;101441.22;5010912;28;19925;-90
2021/07/17 09:08:20;;;;;;;;;;;21.90;84.40;;;19.87;90.85;101442.25;5011970;28;19952;-91
2021/07/17 09:10:49;;;;;;;;;;;22.00;85.30;;;19.90;88.48;101434.38;4994951;28;20449;-87
2021/07/17 09:13:21;;;;;;;;;;;22.10;83.70;;;19.98;90.33;101432.41;5015751;28;19928;-87
2021/07/17 09:16:00;;;;;;;;;;;22.10;85.10;;;19.99;87.22;101432.19;5012761;28;19925;-84
2021/07/17 09:18:33;;;;;;;;;;;22.20;83.10;;;20.04;88.39;101432.34;5030473;28;20340;-83
2021/07/17 09:21:08;;;;;;;;;;;22.30;83.50;;;20.07;87.07;101431.91;5031204;28;19983;-87
2021/07/17 09:23:37;;;;;;;;;;;22.40;82.80;;;20.07;86.01;101426.38;5014523;28;20271;-90
2021/07/17 09:26:12;;;;;;;;;;;22.40;82.30;;;20.13;86.32;101421.88;5029831;28;19927;-90
2021/07/17 09:28:39;;;;;;;;;;;22.40;82.30;;;20.21;88.82;101423.50;5012769;28;19991;-91
2021/07/17 09:31:08;;;;;;;;;;;22.50;83.60;;;20.26;91.33;101416.22;5029787;28;19921;-90
2021/07/17 09:33:35;;;;;;;;;;;22.60;83.80;;;20.30;87.84;101413.84;5012525;28;19940;-90
2021/07/17 09:36:04;;;;;;;;;;;22.70;83.30;;;20.33;88.80;101418.06;5029584;28;19925;-91
2021/07/17 09:38:33;;;;;;;;;;;22.70;83.50;;;20.35;87.01;101418.69;5012513;28;19925;-91
2021/07/17 09:41:02;;;;;;;;;;;22.70;82.80;;;20.40;86.67;101413.31;5024738;28;19925;-90
2021/07/17 09:43:32;;;;;;;;;;;22.70;82.40;;;20.42;85.84;101411.16;5005702;28;19980;-91
2021/07/17 09:46:00;;;;;;;;;;;22.70;82.20;;;20.46;88.13;101412.41;5028819;28;19920;-84
2021/07/17 09:48:30;;;;;;;;;;;22.70;82.70;;;20.55;90.73;101407.44;5018674;28;19926;-85
2021/07/17 09:50:59;;;;;;;;;;;22.80;84.80;;;20.51;87.33;101413.41;5020819;28;19948;-88
2021/07/17 09:53:45;;;;;;;;;;;22.80;80.40;;;20.55;85.18;101410.19;5019879;28;19926;-86
2021/07/17 09:56:15;;;;;;;;;;;22.80;81.30;;;20.58;85.27;101405.06;5020362;28;19925;-87
2021/07/17 09:58:42;;;;;;;;;;;22.80;80.40;;;20.60;84.22;101414.00;5019307;28;20390;-88
2021/07/17 10:01:24;;;;;;;;;;;22.80;80.50;;;20.68;86.17;101410.06;5018719;28;19932;-87
2021/07/17 10:03:53;;;;;;;;;;;22.90;81.20;;;20.65;83.86;101405.00;5020371;28;19936;-88
2021/07/17 10:06:30;;;;;;;;;;;22.90;79.80;;;20.75;85.84;101407.22;5012042;28;20394;-87
2021/07/17 10:09:00;;;;;;;;;;;22.90;82.50;;;20.76;83.43;101397.88;5009885;28;19931;-87
2021/07/17 10:11:28;;;;;;;;;;;22.90;79.80;;;20.79;84.54;101395.47;5010303;28;19957;-87
2021/07/17 10:13:56;;;;;;;;;;;23.00;80.80;;;20.92;87.60;101405.53;5009464;28;19932;-85
2021/07/17 10:16:24;;;;;;;;;;;23.00;83.20;;;21.00;85.43;101396.94;5009271;28;20374;-87
2021/07/17 10:18:52;;;;;;;;;;;23.00;81.30;;;21.01;85.66;101401.38;5016574;28;19943;-85
2021/07/17 10:21:20;;;;;;;;;;;23.00;81.80;;;20.98;83.81;101390.78;5025943;28;19929;-85
2021/07/17 10:23:47;;;;;;;;;;;23.10;81.30;;;21.02;84.27;101400.31;5008982;28;19967;-86
2021/07/17 10:26:16;;;;;;;;;;;23.10;81.20;;;21.03;85.37;101388.13;5027494;28;20015;-85
2021/07/17 10:28:43;;;;;;;;;;;23.10;82.00;;;21.12;84.07;101396.16;5010227;28;19999;-85
2021/07/17 10:31:10;;;;;;;;;;;23.20;81.30;;;21.08;83.04;101399.38;5012474;28;20019;-85
2021/07/17 10:33:37;;;;;;;;;;;23.20;79.80;;;21.05;78.93;101405.34;4991646;28;19921;-85
2021/07/17 10:36:16;;;;;;;;;;;23.20;77.60;;;21.04;79.54;101400.91;5008697;28;19925;-86
2021/07/17 10:39:04;;;;;;;;;;;23.10;77.70;;;21.04;80.42;101394.53;5006005;28;20436;-87
2021/07/17 10:41:49;;;;;;;;;;;23.00;78.20;;;21.07;81.52;101386.59;5010224;28;19936;-86
2021/07/17 10:44:46;;;;;;;;;;;23.20;79.00;;;21.10;82.38;101388.06;5027169;28;20441;-87
2021/07/17 10:47:14;;;;;;;;;;;23.20;79.70;;;21.14;82.65;101391.22;5001025;28;19929;-89
2021/07/17 10:49:54;;;;;;;;;;;23.20;79.60;;;21.13;79.68;101398.66;5004701;28;19925;-89
2021/07/17 10:52:44;;;;;;;;;;;23.20;77.30;;;21.13;78.18;101395.88;5007619;28;19932;-89
2021/07/17 10:55:37;;;;;;;;;;;23.20;76.70;;;21.12;78.28;101388.66;5018060;28;19921;-89
2021/07/17 10:58:39;;;;;;;;;;;23.20;76.80;;;21.17;80.69;101391.59;5008472;28;19926;-90
2021/07/17 11:01:12;;;;;;;;;;;23.20;78.30;;;21.19;80.16;101377.50;5023131;28;19925;-86
2021/07/17 11:03:47;;;;;;;;;;;23.30;78.20;;;21.21;81.78;101392.81;5006399;28;20023;-88
2021/07/17 11:06:24;;;;;;;;;;;23.30;79.80;;;21.28;79.04;101387.16;5012968;28;19929;-91
2021/07/17 11:08:52;;;;;;;;;;;23.30;74.90;;;21.26;76.91;101389.31;5009233;28;19925;-93
2021/07/17 11:11:34;;;;;;;;;;;23.30;75.70;;;21.25;77.68;101382.13;5016781;28;19925;-80
2021/07/17 11:14:26;;;;;;;;;;;23.30;76.20;;;21.27;78.04;101388.25;5021567;28;20496;-88
2021/07/17 11:16:53;;;;;;;;;;;23.30;76.70;;;21.25;78.24;101387.66;5028386;28;19932;-88
2021/07/17 11:19:24;;;;;;;;;;;23.30;76.70;;;21.34;82.51;101380.69;5026926;28;20390;-87